Time;durP1;ratioP1;P1;durP2;ratioP2;P2;SDS_P1;SDS_P2;PMS_P1;PMS_P2;Temp;Humidity;BMP_temperature;BMP_pressure;BME280_temperature;BME280_humidity;BME280_pressure;Samples;Min_cycle;Max_cycle;Signal;HPM_P1;HPM_P2
2021/11/13 00:00:15;;;;;;;31.27;17.58;;;;;;;;;;5039458;28;20820;-69
2021/11/13 00:02:41;;;;;;;33.75;19.13;;;;;;;;;;5065442;28;20051;-69
2021/11/13 00:05:08;;;;;;;34.83;19.92;;;;;;;;;;5061773;28;20059;-69
2021/11/13 00:07:34;;;;;;;31.27;18.80;;;;;;;;;;5067810;28;20057;-69
2021/11/13 00:10:01;;;;;;;32.00;18.58;;;;;;;;;;5068035;28;20508;-69
2021/11/13 00:12:27;;;;;;;34.70;19.20;;;;;;;;;;5061704;28;20047;-69
2021/11/13 00:14:54;;;;;;;36.10;19.83;;;;;;;;;;5061965;28;20062;-69
2021/11/13 00:17:20;;;;;;;33.95;19.45;;;;;;;;;;5062182;28;20531;-69
2021/11/13 00:19:46;;;;;;;37.72;20.58;;;;;;;;;;5068342;28;20060;-69
2021/11/13 00:22:13;;;;;;;35.00;19.05;;;;;;;;;;5062300;28;20049;-69
2021/11/13 00:24:39;;;;;;;34.83;18.77;;;;;;;;;;5062450;28;20059;-69
2021/11/13 00:27:07;;;;;;;38.97;20.25;;;;;;;;;;5043987;28;20482;-70
2021/11/13 00:29:33;;;;;;;35.67;18.88;;;;;;;;;;5035630;28;20064;-69
2021/11/13 00:32:00;;;;;;;34.65;19.58;;;;;;;;;;5045043;28;20053;-69
2021/11/13 00:34:26;;;;;;;41.70;21.27;;;;;;;;;;5041114;28;20072;-69
2021/11/13 00:36:53;;;;;;;37.67;19.83;;;;;;;;;;5047602;28;20045;-69
2021/11/13 00:39:19;;;;;;;38.60;20.10;;;;;;;;;;5041995;28;20045;-69
2021/11/13 00:41:46;;;;;;;41.78;22.08;;;;;;;;;;5043547;28;20056;-69
2021/11/13 00:44:13;;;;;;;36.63;21.10;;;;;;;;;;5043017;28;20052;-69
2021/11/13 00:46:39;;;;;;;40.95;20.17;;;;;;;;;;5041749;28;20403;-68
2021/11/13 00:49:06;;;;;;;44.20;22.13;;;;;;;;;;5047813;28;20057;-68
2021/11/13 00:51:33;;;;;;;36.47;20.85;;;;;;;;;;5041278;28;20064;-70
2021/11/13 00:54:00;;;;;;;38.90;20.52;;;;;;;;;;5049306;28;20056;-70
2021/11/13 00:56:26;;;;;;;45.05;20.85;;;;;;;;;;5055517;28;20044;-70
2021/11/13 00:58:53;;;;;;;40.13;20.58;;;;;;;;;;5063825;28;20518;-70
2021/11/13 01:01:19;;;;;;;42.40;21.10;;;;;;;;;;5067466;28;20417;-70
2021/11/13 01:03:45;;;;;;;44.25;22.65;;;;;;;;;;5060426;28;20060;-70
2021/11/13 01:06:12;;;;;;;42.80;20.42;;;;;;;;;;5067684;28;20066;-70
2021/11/13 01:08:39;;;;;;;38.63;20.48;;;;;;;;;;5058852;28;20051;-70
2021/11/13 01:11:07;;;;;;;42.78;22.23;;;;;;;;;;5050388;28;20057;-70
2021/11/13 01:13:33;;;;;;;41.88;21.50;;;;;;;;;;5053990;28;20044;-71
2021/11/13 01:16:00;;;;;;;35.88;19.35;;;;;;;;;;5071481;28;20095;-71
2021/11/13 01:18:26;;;;;;;38.78;19.73;;;;;;;;;;5068542;28;20052;-71
2021/11/13 01:20:53;;;;;;;37.47;20.48;;;;;;;;;;5068864;28;20036;-71
2021/11/13 01:23:19;;;;;;;34.38;19.05;;;;;;;;;;5060339;28;20068;-71
2021/11/13 01:25:46;;;;;;;34.35;18.85;;;;;;;;;;5052150;28;20056;-71
2021/11/13 01:28:12;;;;;;;38.08;20.13;;;;;;;;;;5070788;28;20049;-71
2021/11/13 01:30:39;;;;;;;37.70;19.10;;;;;;;;;;5061950;28;20067;-71
2021/11/13 01:33:05;;;;;;;36.90;19.17;;;;;;;;;;5071274;28;20052;-70
2021/11/13 01:35:31;;;;;;;34.05;19.25;;;;;;;;;;5070727;28;20166;-70
2021/11/13 01:37:58;;;;;;;35.83;19.38;;;;;;;;;;5060755;28;20048;-70
2021/11/13 01:40:25;;;;;;;38.10;21.48;;;;;;;;;;5066008;28;20476;-70
2021/11/13 01:42:56;;;;;;;39.57;21.97;;;;;;;;;;5063589;28;20080;-70
2021/11/13 01:45:23;;;;;;;40.58;20.30;;;;;;;;;;5071109;28;20351;-70
2021/11/13 01:47:49;;;;;;;40.65;21.20;;;;;;;;;;5063444;28;20053;-70
2021/11/13 01:50:18;;;;;;;36.35;20.38;;;;;;;;;;5071129;28;20068;-71
2021/11/13 01:52:45;;;;;;;41.75;20.70;;;;;;;;;;5057538;28;20056;-70
2021/11/13 01:55:13;;;;;;;40.17;20.40;;;;;;;;;;5048304;28;20049;-70
2021/11/13 01:57:49;;;;;;;31.88;19.20;;;;;;;;;;5069889;28;20148;-70
2021/11/13 02:00:30;;;;;;;41.60;20.77;;;;;;;;;;5064906;28;20722;-70
2021/11/13 02:02:56;;;;;;;36.85;19.40;;;;;;;;;;5050822;28;20115;-70
2021/11/13 02:05:22;;;;;;;38.20;20.92;;;;;;;;;;5040061;28;20060;-71
2021/11/13 02:07:49;;;;;;;37.97;19.85;;;;;;;;;;5045582;28;20052;-70
2021/11/13 02:10:16;;;;;;;34.88;19.00;;;;;;;;;;5043903;28;20056;-71
2021/11/13 02:12:42;;;;;;;32.60;17.77;;;;;;;;;;5053225;28;20051;-71
2021/11/13 02:15:09;;;;;;;32.55;17.23;;;;;;;;;;5070778;28;20054;-71
2021/11/13 02:17:35;;;;;;;38.13;19.83;;;;;;;;;;5063203;28;20493;-72
2021/11/13 02:20:20;;;;;;;33.17;18.90;;;;;;;;;;5066176;28;20147;-71
2021/11/13 02:22:48;;;;;;;31.00;17.48;;;;;;;;;;5057660;28;20056;-71
2021/11/13 02:25:19;;;;;;;30.38;17.95;;;;;;;;;;5069922;28;20056;-71
2021/11/13 02:27:45;;;;;;;30.83;18.08;;;;;;;;;;5052543;28;20113;-71
2021/11/13 02:30:12;;;;;;;30.50;18.38;;;;;;;;;;5050023;28;20057;-70
2021/11/13 02:32:39;;;;;;;32.08;18.55;;;;;;;;;;5050799;28;21087;-70
2021/11/13 02:35:07;;;;;;;32.65;16.70;;;;;;;;;;5062855;28;20052;-70
2021/11/13 02:37:34;;;;;;;29.02;16.98;;;;;;;;;;5068737;28;20056;-70
2021/11/13 02:40:00;;;;;;;29.15;17.10;;;;;;;;;;5063280;28;20056;-71
2021/11/13 02:42:27;;;;;;;29.90;16.50;;;;;;;;;;5069614;28;20060;-71
2021/11/13 02:44:54;;;;;;;31.67;17.98;;;;;;;;;;5063137;28;20494;-71
2021/11/13 02:47:21;;;;;;;34.80;18.48;;;;;;;;;;5065812;28;20054;-70
2021/11/13 02:49:47;;;;;;;33.38;18.40;;;;;;;;;;5057492;28;20048;-71
2021/11/13 02:52:14;;;;;;;31.40;18.55;;;;;;;;;;5069109;28;20044;-71
2021/11/13 02:54:45;;;;;;;29.48;17.10;;;;;;;;;;5068472;28;20058;-70
2021/11/13 02:57:11;;;;;;;33.25;19.52;;;;;;;;;;5044147;28;20500;-70
2021/11/13 02:59:45;;;;;;;33.08;18.02;;;;;;;;;;5069135;28;20070;-70
2021/11/13 03:02:11;;;;;;;32.97;18.98;;;;;;;;;;5040487;28;20049;-70
2021/11/13 03:04:38;;;;;;;30.40;17.95;;;;;;;;;;5064710;28;20049;-70
2021/11/13 03:07:06;;;;;;;29.85;17.85;;;;;;;;;;5063359;28;20501;-70
2021/11/13 03:09:33;;;;;;;30.10;18.83;;;;;;;;;;5065602;28;20437;-71
2021/11/13 03:12:00;;;;;;;34.35;19.88;;;;;;;;;;5070700;28;20075;-72
2021/11/13 03:14:26;;;;;;;31.98;18.85;;;;;;;;;;5061727;28;20048;-71
2021/11/13 03:16:52;;;;;;;32.78;19.60;;;;;;;;;;5062582;28;20051;-72
2021/11/13 03:19:19;;;;;;;36.85;19.80;;;;;;;;;;5063923;28;20056;-72
2021/11/13 03:21:45;;;;;;;32.38;19.08;;;;;;;;;;5070501;28;20056;-72
2021/11/13 03:24:12;;;;;;;29.38;17.33;;;;;;;;;;5063814;28;20067;-72
2021/11/13 03:26:38;;;;;;;36.58;19.90;;;;;;;;;;5052814;28;20040;-72
2021/11/13 03:29:07;;;;;;;34.65;19.63;;;;;;;;;;5066288;28;20059;-72
2021/11/13 03:31:34;;;;;;;30.20;18.70;;;;;;;;;;5063209;28;20410;-72
2021/11/13 03:34:00;;;;;;;38.22;20.75;;;;;;;;;;5070357;28;20493;-72
2021/11/13 03:36:26;;;;;;;37.20;20.92;;;;;;;;;;5063704;28;20048;-72
2021/11/13 03:38:53;;;;;;;40.05;20.77;;;;;;;;;;5070657;28;20060;-71
2021/11/13 03:41:20;;;;;;;38.72;20.85;;;;;;;;;;5045895;28;20127;-71
2021/11/13 03:43:47;;;;;;;34.10;20.08;;;;;;;;;;5070640;28;20048;-71
2021/11/13 03:46:14;;;;;;;38.60;22.77;;;;;;;;;;5064916;28;20433;-71
2021/11/13 03:48:46;;;;;;;39.17;22.38;;;;;;;;;;5069341;28;20052;-71
2021/11/13 03:51:14;;;;;;;36.38;20.00;;;;;;;;;;5070698;28;20052;-71
2021/11/13 03:53:41;;;;;;;36.75;21.77;;;;;;;;;;5054224;28;20052;-71
2021/11/13 03:56:07;;;;;;;37.75;21.42;;;;;;;;;;5069496;28;20063;-72
2021/11/13 03:58:33;;;;;;;41.60;21.70;;;;;;;;;;5063294;28;20056;-72
2021/11/13 04:01:00;;;;;;;36.28;21.08;;;;;;;;;;5069719;28;20343;-72
2021/11/13 04:03:26;;;;;;;36.13;20.88;;;;;;;;;;5063068;28;20040;-72
2021/11/13 04:05:52;;;;;;;32.83;19.83;;;;;;;;;;5066419;28;20762;-72
2021/11/13 04:08:19;;;;;;;33.70;20.05;;;;;;;;;;5047628;28;20052;-72
2021/11/13 04:10:45;;;;;;;36.13;18.48;;;;;;;;;;5062852;28;20098;-72
2021/11/13 04:13:11;;;;;;;36.53;20.92;;;;;;;;;;5070129;28;20036;-72
2021/11/13 04:15:38;;;;;;;40.40;21.58;;;;;;;;;;5062897;28;20041;-72
2021/11/13 04:18:04;;;;;;;41.22;22.05;;;;;;;;;;5069802;28;20048;-72
2021/11/13 04:20:31;;;;;;;32.10;19.52;;;;;;;;;;5059147;28;20052;-72
2021/11/13 04:22:58;;;;;;;38.38;19.08;;;;;;;;;;5067296;28;20049;-72
2021/11/13 04:25:24;;;;;;;37.45;21.08;;;;;;;;;;5068967;28;20090;-72
2021/11/13 04:27:51;;;;;;;38.38;20.50;;;;;;;;;;5046954;28;20140;-72
2021/11/13 04:30:18;;;;;;;35.72;20.48;;;;;;;;;;5052127;28;20059;-72
2021/11/13 04:32:45;;;;;;;32.97;20.30;;;;;;;;;;5060650;28;20052;-72
2021/11/13 04:37:59;;;;;;;32.97;19.55;;;;;;;;;;5063734;28;20054;-72
2021/11/13 04:40:30;;;;;;;31.63;18.73;;;;;;;;;;5052059;28;20049;-72
2021/11/13 04:42:56;;;;;;;31.83;20.27;;;;;;;;;;5063159;28;20044;-72
2021/11/13 04:45:23;;;;;;;32.65;19.40;;;;;;;;;;5069158;28;20166;-72
2021/11/13 04:47:49;;;;;;;34.38;20.30;;;;;;;;;;5066474;28;20055;-72
2021/11/13 04:50:18;;;;;;;28.35;18.25;;;;;;;;;;5066254;28;20060;-72
2021/11/13 04:52:45;;;;;;;30.77;18.88;;;;;;;;;;5073244;28;20049;-72
2021/11/13 04:55:12;;;;;;;30.90;18.67;;;;;;;;;;5046330;28;20049;-72
2021/11/13 04:57:38;;;;;;;30.35;18.30;;;;;;;;;;5053571;28;20481;-72
2021/11/13 05:00:07;;;;;;;34.00;18.60;;;;;;;;;;5043267;28;20263;-72
2021/11/13 05:02:33;;;;;;;31.13;19.00;;;;;;;;;;5067511;28;20070;-72
2021/11/13 05:05:01;;;;;;;33.47;19.90;;;;;;;;;;5056114;28;20052;-72
2021/11/13 05:07:27;;;;;;;30.83;18.33;;;;;;;;;;5049618;28;20393;-72
2021/11/13 05:09:54;;;;;;;32.33;18.65;;;;;;;;;;5073672;28;20056;-72
2021/11/13 05:12:21;;;;;;;33.55;17.92;;;;;;;;;;5066531;28;20064;-71
2021/11/13 05:14:47;;;;;;;33.40;18.70;;;;;;;;;;5068147;28;20053;-71
2021/11/13 05:17:14;;;;;;;28.73;17.73;;;;;;;;;;5061052;28;20066;-72
2021/11/13 05:19:40;;;;;;;34.55;17.85;;;;;;;;;;5072556;28;20059;-72
2021/11/13 05:22:07;;;;;;;28.85;17.38;;;;;;;;;;5066294;28;20053;-73
2021/11/13 05:24:33;;;;;;;24.83;15.75;;;;;;;;;;5072335;28;20056;-72
2021/11/13 05:27:00;;;;;;;25.40;16.40;;;;;;;;;;5072944;28;20058;-72
2021/11/13 05:29:26;;;;;;;24.23;16.77;;;;;;;;;;5060362;28;20052;-72
2021/11/13 05:31:53;;;;;;;27.02;16.77;;;;;;;;;;5069293;28;20047;-72
2021/11/13 05:34:19;;;;;;;25.77;16.25;;;;;;;;;;5066319;28;20051;-72
2021/11/13 05:36:46;;;;;;;25.63;16.38;;;;;;;;;;5072388;28;20052;-72
2021/11/13 05:39:14;;;;;;;30.80;17.17;;;;;;;;;;5065957;28;20045;-72
2021/11/13 05:41:41;;;;;;;23.40;14.52;;;;;;;;;;5070020;28;20143;-72
2021/11/13 05:44:08;;;;;;;25.10;15.43;;;;;;;;;;5065826;28;20044;-72
2021/11/13 05:46:34;;;;;;;23.90;15.82;;;;;;;;;;5065849;28;20454;-72
2021/11/13 05:49:00;;;;;;;26.15;15.40;;;;;;;;;;5072290;28;20045;-71
2021/11/13 05:51:27;;;;;;;23.55;14.32;;;;;;;;;;5066052;28;20044;-72
2021/11/13 05:53:53;;;;;;;21.40;14.43;;;;;;;;;;5071905;28;20063;-71
2021/11/13 05:56:19;;;;;;;22.05;14.38;;;;;;;;;;5060902;28;20053;-71
2021/11/13 05:59:00;;;;;;;24.10;13.95;;;;;;;;;;5067700;28;21247;-71
2021/11/13 06:01:27;;;;;;;22.58;14.60;;;;;;;;;;5071999;28;20048;-72
2021/11/13 06:03:53;;;;;;;21.13;13.70;;;;;;;;;;5064657;28;20049;-72
2021/11/13 06:06:19;;;;;;;22.95;14.63;;;;;;;;;;5072350;28;20041;-72
2021/11/13 06:08:46;;;;;;;25.13;14.30;;;;;;;;;;5065138;28;20512;-71
2021/11/13 06:11:12;;;;;;;27.55;14.57;;;;;;;;;;5067737;28;20489;-72
2021/11/13 06:13:38;;;;;;;20.27;14.13;;;;;;;;;;5061373;28;20044;-71
2021/11/13 06:16:08;;;;;;;21.52;13.48;;;;;;;;;;5072737;28;20067;-72
2021/11/13 06:18:35;;;;;;;20.58;13.35;;;;;;;;;;5054278;28;20045;-72
2021/11/13 06:21:02;;;;;;;20.27;14.23;;;;;;;;;;5065905;28;20056;-72
2021/11/13 06:23:28;;;;;;;25.90;14.65;;;;;;;;;;5070149;28;20049;-72
2021/11/13 06:25:55;;;;;;;21.27;14.38;;;;;;;;;;5059841;28;20040;-72
2021/11/13 06:28:21;;;;;;;19.33;13.52;;;;;;;;;;5071729;28;20059;-72
2021/11/13 06:30:47;;;;;;;19.95;13.85;;;;;;;;;;5065062;28;20180;-72
2021/11/13 06:33:13;;;;;;;22.15;13.73;;;;;;;;;;5071372;28;20060;-72
2021/11/13 06:35:40;;;;;;;21.58;14.52;;;;;;;;;;5068740;28;20076;-72
2021/11/13 06:38:06;;;;;;;19.60;13.52;;;;;;;;;;5063351;28;20045;-72
2021/11/13 06:40:32;;;;;;;20.75;13.80;;;;;;;;;;5067052;28;20040;-72
2021/11/13 06:42:59;;;;;;;21.02;13.98;;;;;;;;;;5064902;28;20056;-72
2021/11/13 06:45:25;;;;;;;21.40;13.88;;;;;;;;;;5071586;28;20056;-71
2021/11/13 06:47:51;;;;;;;22.80;13.90;;;;;;;;;;5064480;28;20051;-72
2021/11/13 06:50:18;;;;;;;23.52;13.68;;;;;;;;;;5072054;28;20113;-72
2021/11/13 06:52:44;;;;;;;23.33;14.73;;;;;;;;;;5062571;28;20045;-72
2021/11/13 06:55:11;;;;;;;21.65;14.27;;;;;;;;;;5065320;28;20084;-72
2021/11/13 06:57:39;;;;;;;21.20;13.90;;;;;;;;;;5070255;28;20063;-72
2021/11/13 07:00:08;;;;;;;22.55;13.55;;;;;;;;;;5064168;28;20061;-72
2021/11/13 07:02:34;;;;;;;19.80;13.55;;;;;;;;;;5070724;28;20059;-72
2021/11/13 07:05:00;;;;;;;19.73;13.00;;;;;;;;;;5064117;28;20394;-72
2021/11/13 07:07:26;;;;;;;18.95;13.13;;;;;;;;;;5065294;28;20066;-72
2021/11/13 07:09:53;;;;;;;21.42;13.65;;;;;;;;;;5061416;28;20040;-72
2021/11/13 07:12:19;;;;;;;20.58;13.43;;;;;;;;;;5070570;28;20056;-72
2021/11/13 07:14:45;;;;;;;18.38;12.43;;;;;;;;;;5071140;28;20048;-72
2021/11/13 07:17:12;;;;;;;20.20;15.02;;;;;;;;;;5064472;28;20049;-72
2021/11/13 07:19:38;;;;;;;18.83;13.10;;;;;;;;;;5051503;28;20486;-72
2021/11/13 07:22:04;;;;;;;22.00;13.57;;;;;;;;;;5058444;28;20051;-72
2021/11/13 07:24:31;;;;;;;21.17;13.80;;;;;;;;;;5071095;28;20044;-72
2021/11/13 07:26:57;;;;;;;21.63;13.70;;;;;;;;;;5064820;28;20053;-72
2021/11/13 07:29:25;;;;;;;18.38;13.50;;;;;;;;;;5070670;28;20126;-72
2021/11/13 07:31:52;;;;;;;22.60;14.65;;;;;;;;;;5070687;28;20059;-72
2021/11/13 07:34:18;;;;;;;19.58;14.70;;;;;;;;;;5059623;28;20052;-72
2021/11/13 07:36:45;;;;;;;23.25;14.60;;;;;;;;;;5066032;28;20795;-72
2021/11/13 07:39:11;;;;;;;20.55;14.23;;;;;;;;;;5064211;28;20055;-72
2021/11/13 07:41:38;;;;;;;21.52;13.60;;;;;;;;;;5070450;28;20484;-72
2021/11/13 07:44:04;;;;;;;22.00;14.52;;;;;;;;;;5064557;28;20448;-72
2021/11/13 07:46:30;;;;;;;24.75;14.88;;;;;;;;;;5070291;28;20044;-72
2021/11/13 07:48:57;;;;;;;19.67;13.77;;;;;;;;;;5065368;28;20106;-71
2021/11/13 07:51:23;;;;;;;22.45;14.27;;;;;;;;;;5059052;28;20044;-71
2021/11/13 07:53:50;;;;;;;22.45;14.18;;;;;;;;;;5070122;28;20056;-72
2021/11/13 07:56:16;;;;;;;23.50;14.68;;;;;;;;;;5062804;28;20048;-71
2021/11/13 07:58:43;;;;;;;22.63;14.90;;;;;;;;;;5052038;28;20481;-71
2021/11/13 08:01:09;;;;;;;23.45;15.85;;;;;;;;;;5055958;28;20040;-72
2021/11/13 08:03:35;;;;;;;21.20;14.27;;;;;;;;;;5042157;28;20063;-71
2021/11/13 08:06:02;;;;;;;19.90;14.13;;;;;;;;;;5031504;28;20041;-71
2021/11/13 08:08:28;;;;;;;19.60;14.32;;;;;;;;;;5045764;28;20055;-71
2021/11/13 08:10:56;;;;;;;21.17;15.13;;;;;;;;;;5049233;28;20059;-71
2021/11/13 08:13:23;;;;;;;23.63;15.27;;;;;;;;;;5034298;28;20045;-71
2021/11/13 08:15:49;;;;;;;20.90;14.70;;;;;;;;;;5065120;28;20060;-71
2021/11/13 08:18:16;;;;;;;23.58;15.75;;;;;;;;;;5041046;28;20083;-71
2021/11/13 08:20:42;;;;;;;23.88;14.65;;;;;;;;;;5063843;28;20045;-71
2021/11/13 08:23:09;;;;;;;21.60;14.27;;;;;;;;;;5052328;28;20053;-71
2021/11/13 08:25:41;;;;;;;23.77;15.75;;;;;;;;;;5043077;28;20147;-71
2021/11/13 08:28:08;;;;;;;25.25;15.55;;;;;;;;;;5052530;28;20398;-71
2021/11/13 08:30:35;;;;;;;23.73;15.93;;;;;;;;;;5041466;28;20714;-71
2021/11/13 08:33:02;;;;;;;21.15;15.55;;;;;;;;;;5059067;28;20052;-71
2021/11/13 08:35:29;;;;;;;24.55;15.88;;;;;;;;;;5062917;28;20053;-71
2021/11/13 08:37:58;;;;;;;26.45;16.02;;;;;;;;;;5051437;28;20048;-71
2021/11/13 08:40:25;;;;;;;25.75;17.48;;;;;;;;;;5059671;28;20060;-71
2021/11/13 08:42:51;;;;;;;23.25;15.38;;;;;;;;;;5047679;28;20048;-73
2021/11/13 08:45:18;;;;;;;24.20;15.57;;;;;;;;;;5045521;28;20044;-71
2021/11/13 08:47:45;;;;;;;20.98;14.23;;;;;;;;;;5042813;28;20065;-71
2021/11/13 08:50:17;;;;;;;22.60;14.60;;;;;;;;;;5049579;28;20055;-71
2021/11/13 08:52:45;;;;;;;26.23;15.98;;;;;;;;;;5042434;28;20053;-71
2021/11/13 08:55:12;;;;;;;26.00;16.52;;;;;;;;;;5059898;28;20044;-71
2021/11/13 08:57:40;;;;;;;23.20;16.42;;;;;;;;;;5058039;28;20404;-71
2021/11/13 09:00:07;;;;;;;26.67;17.17;;;;;;;;;;5063373;28;20045;-71
2021/11/13 09:02:33;;;;;;;23.38;16.42;;;;;;;;;;5049018;28;20047;-71
2021/11/13 09:05:00;;;;;;;24.10;15.52;;;;;;;;;;5041989;28;20087;-71
2021/11/13 09:07:27;;;;;;;24.98;16.73;;;;;;;;;;5049146;28;20037;-71
2021/11/13 09:09:53;;;;;;;25.02;17.45;;;;;;;;;;5042394;28;20045;-71
2021/11/13 09:12:22;;;;;;;25.55;17.20;;;;;;;;;;5043673;28;20057;-71
2021/11/13 09:14:49;;;;;;;25.75;16.40;;;;;;;;;;5039021;28;20052;-71
2021/11/13 09:17:16;;;;;;;30.43;17.10;;;;;;;;;;5049285;28;20087;-71
2021/11/13 09:19:43;;;;;;;23.02;16.00;;;;;;;;;;5048903;28;20045;-71
2021/11/13 09:22:09;;;;;;;29.17;17.88;;;;;;;;;;5041692;28;20045;-71
2021/11/13 09:24:35;;;;;;;28.50;16.77;;;;;;;;;;5046727;28;20049;-71
2021/11/13 09:27:02;;;;;;;26.45;16.05;;;;;;;;;;5037997;28;20047;-71
2021/11/13 09:29:28;;;;;;;28.13;17.85;;;;;;;;;;5048889;28;20053;-71
2021/11/13 09:31:55;;;;;;;24.75;16.58;;;;;;;;;;5049465;28;20063;-71
2021/11/13 09:34:21;;;;;;;29.13;17.38;;;;;;;;;;5073196;28;20390;-71
2021/11/13 09:36:48;;;;;;;28.52;16.95;;;;;;;;;;5067291;28;20051;-71
2021/11/13 09:39:15;;;;;;;31.88;16.10;;;;;;;;;;5041136;28;20041;-71
2021/11/13 09:41:41;;;;;;;28.88;16.55;;;;;;;;;;5033930;28;20045;-71
2021/11/13 09:44:08;;;;;;;25.10;15.10;;;;;;;;;;5060760;28;20048;-71
2021/11/13 09:46:34;;;;;;;25.52;16.40;;;;;;;;;;5072455;28;20040;-71
2021/11/13 09:49:01;;;;;;;28.00;16.90;;;;;;;;;;5065679;28;20477;-71
2021/11/13 09:51:27;;;;;;;24.88;15.68;;;;;;;;;;5068185;28;20048;-71
2021/11/13 09:53:54;;;;;;;31.80;17.38;;;;;;;;;;5063338;28;20052;-71
2021/11/13 09:56:22;;;;;;;32.35;17.38;;;;;;;;;;5070475;28;20053;-71
2021/11/13 09:58:48;;;;;;;28.47;16.00;;;;;;;;;;5072261;28;20060;-71
2021/11/13 10:01:15;;;;;;;26.60;15.23;;;;;;;;;;5065394;28;20041;-71
2021/11/13 10:03:43;;;;;;;27.98;15.88;;;;;;;;;;5072016;28;20393;-70
2021/11/13 10:06:13;;;;;;;27.43;16.07;;;;;;;;;;5061480;28;20357;-71
2021/11/13 10:08:43;;;;;;;24.65;16.15;;;;;;;;;;5051816;28;20288;-71
2021/11/13 10:11:12;;;;;;;26.85;15.55;;;;;;;;;;5046566;28;20447;-71
2021/11/13 10:13:41;;;;;;;24.25;14.68;;;;;;;;;;5061891;28;20048;-71
2021/11/13 10:16:07;;;;;;;;;;;;;;;;;;5054574;28;20041;-72
2021/11/13 10:18:35;;;;;;;25.42;15.05;;;;;;;;;;5041438;28;19925;-70
2021/11/13 10:21:04;;;;;;;29.95;16.15;;;;;;;;;;5042102;28;20160;-70
2021/11/13 10:23:36;;;;;;;26.83;14.68;;;;;;;;;;5041624;28;20060;-70
2021/11/13 10:26:09;;;;;;;24.83;15.35;;;;;;;;;;5029458;28;20048;-70
2021/11/13 10:28:39;;;;;;;25.30;16.27;;;;;;;;;;5042526;28;20052;-70
2021/11/13 10:31:14;;;;;;;28.88;15.45;;;;;;;;;;5049010;28;20049;-71
2021/11/13 10:33:40;;;;;;;23.23;14.77;;;;;;;;;;5036898;28;20071;-70
2021/11/13 10:36:07;;;;;;;25.63;15.15;;;;;;;;;;5043695;28;20045;-70
2021/11/13 10:38:34;;;;;;;24.13;15.10;;;;;;;;;;5047940;28;20040;-70
2021/11/13 10:41:03;;;;;;;28.08;16.95;;;;;;;;;;5042092;28;20345;-70
2021/11/13 10:43:35;;;;;;;23.17;14.65;;;;;;;;;;5047333;28;20802;-70
2021/11/13 10:46:03;;;;;;;25.83;15.88;;;;;;;;;;5044463;28;20048;-70
2021/11/13 10:48:32;;;;;;;29.08;16.50;;;;;;;;;;5043173;28;20076;-71
2021/11/13 10:50:58;;;;;;;;;;;;;;;;;;5038205;28;20072;-71
2021/11/13 10:53:25;;;;;;;23.27;14.88;;;;;;;;;;5048619;28;19928;-70
2021/11/13 10:56:12;;;;;;;24.15;15.02;;;;;;;;;;5060691;28;20055;-70
2021/11/13 10:58:40;;;;;;;28.50;15.95;;;;;;;;;;5043626;28;20409;-71
2021/11/13 11:01:11;;;;;;;23.02;14.88;;;;;;;;;;5052439;28;20672;-71
2021/11/13 11:03:39;;;;;;;25.73;14.88;;;;;;;;;;5046744;28;20135;-72
2021/11/13 11:06:06;;;;;;;26.20;15.20;;;;;;;;;;5049855;28;20221;-71
2021/11/13 11:08:34;;;;;;;27.40;15.30;;;;;;;;;;5023425;28;20049;-71
2021/11/13 11:11:02;;;;;;;25.55;14.82;;;;;;;;;;5048383;28;20152;-70
2021/11/13 11:13:46;;;;;;;21.55;14.40;;;;;;;;;;5050644;28;20037;-71
2021/11/13 11:16:45;;;;;;;24.40;14.95;;;;;;;;;;5063254;28;20044;-71
2021/11/13 11:19:19;;;;;;;24.88;14.25;;;;;;;;;;5013562;28;20502;-71
2021/11/13 11:21:47;;;;;;;21.40;13.70;;;;;;;;;;5067787;28;20044;-70
2021/11/13 11:24:16;;;;;;;27.02;15.07;;;;;;;;;;5067409;28;20063;-72
2021/11/13 11:26:43;;;;;;;28.23;15.32;;;;;;;;;;5059351;28;20076;-71
2021/11/13 11:29:10;;;;;;;21.27;14.52;;;;;;;;;;5064420;28;20052;-70
2021/11/13 11:31:42;;;;;;;28.50;14.88;;;;;;;;;;5055666;28;20048;-70
2021/11/13 11:34:28;;;;;;;20.00;13.07;;;;;;;;;;5067189;28;20044;-69
2021/11/13 11:36:56;;;;;;;23.05;13.68;;;;;;;;;;5060493;28;20048;-71
2021/11/13 11:39:23;;;;;;;24.25;14.23;;;;;;;;;;5049768;28;20052;-70
2021/11/13 11:41:50;;;;;;;25.63;15.32;;;;;;;;;;5044745;28;20049;-71
2021/11/13 11:44:17;;;;;;;22.90;13.57;;;;;;;;;;5044650;28;20053;-70
2021/11/13 11:46:43;;;;;;;23.25;13.98;;;;;;;;;;5042571;28;20048;-70
2021/11/13 11:49:11;;;;;;;22.38;12.25;;;;;;;;;;5040279;28;20053;-70
2021/11/13 11:51:38;;;;;;;22.02;13.43;;;;;;;;;;5046907;28;20076;-70
2021/11/13 11:54:09;;;;;;;23.20;12.05;;;;;;;;;;5042578;28;20123;-70
2021/11/13 11:56:36;;;;;;;20.13;12.13;;;;;;;;;;5066868;28;20087;-69
2021/11/13 11:59:03;;;;;;;20.27;10.60;;;;;;;;;;5047113;28;20036;-70
2021/11/13 12:01:34;;;;;;;16.45;11.07;;;;;;;;;;5055738;28;20041;-70
2021/11/13 12:04:15;;;;;;;16.58;9.93;;;;;;;;;;5067323;28;20048;-71
2021/11/13 12:06:48;;;;;;;15.48;9.82;;;;;;;;;;5066172;28;20127;-70
2021/11/13 12:09:14;;;;;;;19.58;10.38;;;;;;;;;;5067241;28;20057;-70
2021/11/13 12:11:42;;;;;;;17.40;10.90;;;;;;;;;;5037349;28;20053;-70
2021/11/13 12:14:32;;;;;;;19.63;10.45;;;;;;;;;;5062572;28;20143;-69
2021/11/13 12:17:21;;;;;;;18.88;10.82;;;;;;;;;;5060296;28;20816;-70
2021/11/13 12:20:08;;;;;;;23.35;11.95;;;;;;;;;;5065886;28;20064;-69
2021/11/13 12:22:35;;;;;;;16.00;10.80;;;;;;;;;;5060191;28;20497;-70
2021/11/13 12:25:14;;;;;;;14.50;9.00;;;;;;;;;;5049598;28;20248;-70
2021/11/13 12:27:41;;;;;;;14.20;9.25;;;;;;;;;;5037276;28;20063;-70
2021/11/13 12:30:08;;;;;;;13.57;9.10;;;;;;;;;;5050098;28;20052;-70
2021/11/13 12:32:38;;;;;;;14.82;9.25;;;;;;;;;;5040589;28;20053;-71
2021/11/13 12:35:05;;;;;;;13.80;8.50;;;;;;;;;;5046645;28;20048;-70
2021/11/13 12:37:31;;;;;;;13.68;8.70;;;;;;;;;;5045011;28;20056;-71
2021/11/13 12:39:59;;;;;;;13.32;8.93;;;;;;;;;;5032618;28;20057;-71
2021/11/13 12:42:27;;;;;;;14.32;9.10;;;;;;;;;;5046638;28;20049;-70
2021/11/13 12:44:54;;;;;;;13.32;8.80;;;;;;;;;;5039951;28;20052;-71
2021/11/13 12:47:32;;;;;;;12.93;8.85;;;;;;;;;;5046906;28;20052;-70
2021/11/13 12:49:58;;;;;;;;;;;;;;;;;;5041388;28;20416;-71
2021/11/13 12:52:45;;;;;;;11.68;7.90;;;;;;;;;;5042497;28;19924;-71
2021/11/13 12:55:15;;;;;;;12.55;8.27;;;;;;;;;;5030936;28;20053;-70
2021/11/13 12:57:58;;;;;;;12.63;7.97;;;;;;;;;;5054119;28;20048;-71
2021/11/13 13:00:26;;;;;;;14.15;8.73;;;;;;;;;;5056513;28;20048;-71
2021/11/13 13:03:04;;;;;;;13.35;7.93;;;;;;;;;;5050343;28;20048;-71
2021/11/13 13:05:30;;;;;;;10.30;6.40;;;;;;;;;;5055537;28;20052;-72
2021/11/13 13:08:01;;;;;;;11.10;7.53;;;;;;;;;;5048509;28;20070;-71
2021/11/13 13:10:29;;;;;;;13.45;7.80;;;;;;;;;;5062997;28;20468;-72
2021/11/13 13:12:55;;;;;;;;;;;;;;;;;;5056566;28;20551;-71
2021/11/13 13:15:22;;;;;;;12.07;7.95;;;;;;;;;;5062273;28;21265;-71
2021/11/13 13:17:50;;;;;;;12.25;8.07;;;;;;;;;;5061511;28;20051;-71
2021/11/13 13:20:17;;;;;;;;;;;;;;;;;;5050063;28;20106;-72
2021/11/13 13:22:43;;;;;;;10.60;7.75;;;;;;;;;;5057313;28;20471;-72
2021/11/13 13:25:10;;;;;;;14.73;7.82;;;;;;;;;;5053430;28;20060;-72
2021/11/13 13:27:37;;;;;;;12.00;8.15;;;;;;;;;;5061376;28;20086;-71
2021/11/13 13:30:09;;;;;;;18.70;9.25;;;;;;;;;;5056216;28;20876;-71
2021/11/13 13:32:35;;;;;;;11.88;7.80;;;;;;;;;;5061825;28;20049;-72
2021/11/13 13:35:04;;;;;;;12.32;8.00;;;;;;;;;;5057144;28;20040;-71
2021/11/13 13:37:49;;;;;;;16.05;7.35;;;;;;;;;;5049965;28;20049;-72
2021/11/13 13:40:18;;;;;;;13.50;8.00;;;;;;;;;;5061614;28;20044;-71
2021/11/13 13:42:44;;;;;;;11.27;7.38;;;;;;;;;;5035231;28;20053;-72
2021/11/13 13:45:11;;;;;;;11.82;6.82;;;;;;;;;;5061486;28;20044;-71
2021/11/13 13:47:37;;;;;;;10.57;6.72;;;;;;;;;;5049757;28;20045;-71
2021/11/13 13:50:05;;;;;;;12.23;6.72;;;;;;;;;;5057205;28;20056;-72
2021/11/13 13:52:38;;;;;;;10.68;6.85;;;;;;;;;;5058913;28;20057;-71
2021/11/13 13:55:07;;;;;;;10.18;6.75;;;;;;;;;;5061423;28;20781;-71
2021/11/13 13:57:33;;;;;;;10.38;6.65;;;;;;;;;;5062384;28;20063;-71
2021/11/13 14:00:00;;;;;;;10.05;6.72;;;;;;;;;;5055036;28;20048;-71
2021/11/13 14:02:27;;;;;;;12.20;6.57;;;;;;;;;;5057137;28;20090;-71
2021/11/13 14:04:56;;;;;;;9.02;6.10;;;;;;;;;;5051429;28;20056;-71
2021/11/13 14:07:24;;;;;;;11.02;6.72;;;;;;;;;;5059985;28;20056;-71
2021/11/13 14:09:56;;;;;;;8.55;5.53;;;;;;;;;;5053025;28;20509;-71
2021/11/13 14:12:43;;;;;;;10.40;7.68;;;;;;;;;;5059618;28;20501;-71
2021/11/13 14:15:11;;;;;;;12.73;6.60;;;;;;;;;;5058847;28;20044;-71
2021/11/13 14:17:37;;;;;;;11.50;6.78;;;;;;;;;;5043786;28;20056;-71
2021/11/13 14:20:11;;;;;;;11.65;6.43;;;;;;;;;;5059082;28;20437;-71
2021/11/13 14:22:37;;;;;;;11.20;7.38;;;;;;;;;;5049810;28;20415;-71
2021/11/13 14:25:04;;;;;;;12.63;7.10;;;;;;;;;;5057699;28;20821;-71
2021/11/13 14:27:30;;;;;;;13.60;7.50;;;;;;;;;;5053479;28;20044;-71